sensor_id;sensor_type;location;lat;lon;timestamp;P1;durP1;ratioP1;P2;durP2;ratioP2
53549;SDS011;67273;52.914;-0.982;2023-05-19T00:00:42;8.57;;;5.65;;
53549;SDS011;67273;52.914;-0.982;2023-05-19T00:03:11;8.30;;;5.40;;
53549;SDS011;67273;52.914;-0.982;2023-05-19T00:05:37;9.35;;;6.03;;
53549;SDS011;67273;52.914;-0.982;2023-05-19T00:08:11;8.75;;;5.80;;
53549;SDS011;67273;52.914;-0.982;2023-05-19T00:10:40;9.20;;;5.38;;
53549;SDS011;67273;52.914;-0.982;2023-05-19T00:13:06;8.88;;;5.63;;
53549;SDS011;67273;52.914;-0.982;2023-05-19T00:15:33;7.20;;;5.03;;
53549;SDS011;67273;52.914;-0.982;2023-05-19T00:17:59;8.52;;;5.47;;
53549;SDS011;67273;52.914;-0.982;2023-05-19T00:20:25;9.43;;;6.10;;
53549;SDS011;67273;52.914;-0.982;2023-05-19T00:22:51;7.72;;;5.57;;
53549;SDS011;67273;52.914;-0.982;2023-05-19T00:25:18;8.20;;;5.80;;
53549;SDS011;67273;52.914;-0.982;2023-05-19T00:27:43;8.43;;;5.53;;
53549;SDS011;67273;52.914;-0.982;2023-05-19T00:30:09;8.65;;;5.90;;
53549;SDS011;67273;52.914;-0.982;2023-05-19T00:32:35;9.18;;;5.65;;
53549;SDS011;67273;52.914;-0.982;2023-05-19T00:35:01;8.90;;;6.10;;
53549;SDS011;67273;52.914;-0.982;2023-05-19T00:37:27;8.45;;;5.75;;
53549;SDS011;67273;52.914;-0.982;2023-05-19T00:39:52;9.00;;;5.63;;
53549;SDS011;67273;52.914;-0.982;2023-05-19T00:42:20;9.48;;;6.43;;
53549;SDS011;67273;52.914;-0.982;2023-05-19T00:44:46;9.15;;;5.85;;
53549;SDS011;67273;52.914;-0.982;2023-05-19T00:47:12;8.40;;;5.80;;
53549;SDS011;67273;52.914;-0.982;2023-05-19T00:49:38;9.45;;;6.50;;
53549;SDS011;67273;52.914;-0.982;2023-05-19T00:52:05;8.63;;;6.18;;
53549;SDS011;67273;52.914;-0.982;2023-05-19T00:54:31;8.77;;;6.43;;
53549;SDS011;67273;52.914;-0.982;2023-05-19T00:56:58;7.88;;;5.55;;
53549;SDS011;67273;52.914;-0.982;2023-05-19T00:59:26;9.20;;;6.00;;
53549;SDS011;67273;52.914;-0.982;2023-05-19T01:01:52;7.57;;;5.82;;
53549;SDS011;67273;52.914;-0.982;2023-05-19T01:04:18;8.55;;;5.88;;
53549;SDS011;67273;52.914;-0.982;2023-05-19T01:06:45;10.18;;;6.28;;
53549;SDS011;67273;52.914;-0.982;2023-05-19T01:09:11;9.68;;;6.32;;
53549;SDS011;67273;52.914;-0.982;2023-05-19T01:11:37;10.50;;;6.03;;
53549;SDS011;67273;52.914;-0.982;2023-05-19T01:14:03;8.20;;;6.15;;
53549;SDS011;67273;52.914;-0.982;2023-05-19T01:16:32;9.25;;;5.95;;
53549;SDS011;67273;52.914;-0.982;2023-05-19T01:19:21;8.63;;;5.97;;
53549;SDS011;67273;52.914;-0.982;2023-05-19T01:22:05;8.45;;;5.63;;
53549;SDS011;67273;52.914;-0.982;2023-05-19T01:33:10;9.73;;;6.00;;
53549;SDS011;67273;52.914;-0.982;2023-05-19T01:35:39;8.85;;;5.80;;
53549;SDS011;67273;52.914;-0.982;2023-05-19T01:38:07;8.20;;;5.85;;
53549;SDS011;67273;52.914;-0.982;2023-05-19T01:40:34;10.63;;;5.65;;
53549;SDS011;67273;52.914;-0.982;2023-05-19T01:43:01;7.95;;;5.55;;
53549;SDS011;67273;52.914;-0.982;2023-05-19T01:45:28;8.23;;;5.75;;
53549;SDS011;67273;52.914;-0.982;2023-05-19T01:47:57;7.43;;;5.18;;
53549;SDS011;67273;52.914;-0.982;2023-05-19T01:50:25;7.47;;;5.50;;
53549;SDS011;67273;52.914;-0.982;2023-05-19T01:52:51;7.57;;;5.53;;
53549;SDS011;67273;52.914;-0.982;2023-05-19T01:55:17;7.38;;;5.45;;
53549;SDS011;67273;52.914;-0.982;2023-05-19T01:57:46;6.80;;;5.15;;
53549;SDS011;67273;52.914;-0.982;2023-05-19T02:00:22;7.82;;;5.60;;
53549;SDS011;67273;52.914;-0.982;2023-05-19T02:03:07;7.88;;;5.70;;
53549;SDS011;67273;52.914;-0.982;2023-05-19T02:05:44;8.77;;;5.97;;
53549;SDS011;67273;52.914;-0.982;2023-05-19T02:10:49;8.00;;;5.65;;
53549;SDS011;67273;52.914;-0.982;2023-05-19T02:13:20;7.35;;;5.18;;
53549;SDS011;67273;52.914;-0.982;2023-05-19T02:15:51;7.28;;;5.45;;
53549;SDS011;67273;52.914;-0.982;2023-05-19T02:18:21;6.43;;;4.90;;
53549;SDS011;67273;52.914;-0.982;2023-05-19T02:20:50;7.95;;;5.35;;
53549;SDS011;67273;52.914;-0.982;2023-05-19T02:23:16;7.03;;;5.07;;
53549;SDS011;67273;52.914;-0.982;2023-05-19T02:25:42;6.75;;;5.28;;
53549;SDS011;67273;52.914;-0.982;2023-05-19T02:28:08;7.50;;;5.10;;
53549;SDS011;67273;52.914;-0.982;2023-05-19T02:30:36;6.82;;;5.10;;
53549;SDS011;67273;52.914;-0.982;2023-05-19T02:33:04;6.85;;;5.05;;
53549;SDS011;67273;52.914;-0.982;2023-05-19T02:35:38;7.65;;;5.10;;
53549;SDS011;67273;52.914;-0.982;2023-05-19T02:38:06;6.88;;;5.10;;
53549;SDS011;67273;52.914;-0.982;2023-05-19T02:40:34;7.47;;;4.88;;
53549;SDS011;67273;52.914;-0.982;2023-05-19T02:43:01;7.63;;;5.05;;
53549;SDS011;67273;52.914;-0.982;2023-05-19T02:45:28;6.38;;;4.88;;
53549;SDS011;67273;52.914;-0.982;2023-05-19T02:47:56;6.85;;;4.90;;
53549;SDS011;67273;52.914;-0.982;2023-05-19T02:50:22;7.30;;;5.00;;
53549;SDS011;67273;52.914;-0.982;2023-05-19T02:52:53;6.50;;;4.93;;
53549;SDS011;67273;52.914;-0.982;2023-05-19T02:55:22;6.53;;;4.90;;
53549;SDS011;67273;52.914;-0.982;2023-05-19T02:57:50;6.55;;;5.05;;
53549;SDS011;67273;52.914;-0.982;2023-05-19T03:00:19;6.93;;;4.85;;
53549;SDS011;67273;52.914;-0.982;2023-05-19T03:02:47;6.68;;;4.68;;
53549;SDS011;67273;52.914;-0.982;2023-05-19T03:05:17;6.55;;;4.88;;
53549;SDS011;67273;52.914;-0.982;2023-05-19T03:07:45;6.70;;;4.72;;
53549;SDS011;67273;52.914;-0.982;2023-05-19T03:10:17;5.82;;;4.55;;
53549;SDS011;67273;52.914;-0.982;2023-05-19T03:12:43;6.00;;;4.60;;
53549;SDS011;67273;52.914;-0.982;2023-05-19T03:15:08;6.43;;;4.68;;
53549;SDS011;67273;52.914;-0.982;2023-05-19T03:17:37;6.93;;;5.10;;
53549;SDS011;67273;52.914;-0.982;2023-05-19T03:20:03;6.72;;;4.88;;
53549;SDS011;67273;52.914;-0.982;2023-05-19T03:22:31;7.43;;;4.57;;
53549;SDS011;67273;52.914;-0.982;2023-05-19T03:24:57;6.43;;;4.75;;
53549;SDS011;67273;52.914;-0.982;2023-05-19T03:27:24;7.03;;;4.68;;
53549;SDS011;67273;52.914;-0.982;2023-05-19T03:29:50;6.50;;;4.53;;
53549;SDS011;67273;52.914;-0.982;2023-05-19T03:32:17;6.18;;;4.55;;
53549;SDS011;67273;52.914;-0.982;2023-05-19T03:34:44;5.70;;;4.32;;
53549;SDS011;67273;52.914;-0.982;2023-05-19T03:37:10;6.50;;;4.45;;
53549;SDS011;67273;52.914;-0.982;2023-05-19T03:39:38;6.10;;;4.60;;
53549;SDS011;67273;52.914;-0.982;2023-05-19T03:42:04;6.00;;;4.40;;
53549;SDS011;67273;52.914;-0.982;2023-05-19T03:44:31;6.55;;;4.82;;
53549;SDS011;67273;52.914;-0.982;2023-05-19T03:46:58;5.93;;;4.40;;
53549;SDS011;67273;52.914;-0.982;2023-05-19T03:49:43;5.82;;;4.13;;
53549;SDS011;67273;52.914;-0.982;2023-05-19T03:52:32;6.30;;;4.13;;
53549;SDS011;67273;52.914;-0.982;2023-05-19T03:57:31;5.45;;;4.25;;
53549;SDS011;67273;52.914;-0.982;2023-05-19T03:59:59;6.55;;;4.25;;
53549;SDS011;67273;52.914;-0.982;2023-05-19T04:02:25;5.43;;;3.90;;
53549;SDS011;67273;52.914;-0.982;2023-05-19T04:04:51;6.10;;;4.13;;
53549;SDS011;67273;52.914;-0.982;2023-05-19T04:07:16;5.75;;;4.15;;
53549;SDS011;67273;52.914;-0.982;2023-05-19T04:09:42;6.28;;;4.45;;
53549;SDS011;67273;52.914;-0.982;2023-05-19T04:12:08;6.00;;;4.32;;
53549;SDS011;67273;52.914;-0.982;2023-05-19T04:14:33;4.95;;;3.95;;
53549;SDS011;67273;52.914;-0.982;2023-05-19T04:17:00;6.10;;;4.30;;
53549;SDS011;67273;52.914;-0.982;2023-05-19T04:19:26;5.93;;;4.22;;
53549;SDS011;67273;52.914;-0.982;2023-05-19T04:21:54;5.82;;;3.92;;
53549;SDS011;67273;52.914;-0.982;2023-05-19T04:24:20;5.05;;;3.75;;
53549;SDS011;67273;52.914;-0.982;2023-05-19T04:26:45;5.25;;;3.90;;
53549;SDS011;67273;52.914;-0.982;2023-05-19T04:29:13;5.45;;;3.78;;
53549;SDS011;67273;52.914;-0.982;2023-05-19T04:31:42;5.50;;;4.00;;
53549;SDS011;67273;52.914;-0.982;2023-05-19T04:34:10;5.78;;;4.25;;
53549;SDS011;67273;52.914;-0.982;2023-05-19T04:36:35;5.45;;;3.80;;
53549;SDS011;67273;52.914;-0.982;2023-05-19T04:39:02;5.05;;;4.03;;
53549;SDS011;67273;52.914;-0.982;2023-05-19T04:41:31;5.20;;;4.20;;
53549;SDS011;67273;52.914;-0.982;2023-05-19T04:43:58;5.82;;;3.90;;
53549;SDS011;67273;52.914;-0.982;2023-05-19T04:46:24;5.28;;;3.70;;
53549;SDS011;67273;52.914;-0.982;2023-05-19T04:48:53;5.05;;;3.60;;
53549;SDS011;67273;52.914;-0.982;2023-05-19T04:51:21;4.30;;;3.45;;
53549;SDS011;67273;52.914;-0.982;2023-05-19T04:53:47;5.45;;;3.83;;
53549;SDS011;67273;52.914;-0.982;2023-05-19T04:56:13;4.85;;;3.72;;
53549;SDS011;67273;52.914;-0.982;2023-05-19T04:58:40;5.10;;;3.70;;
53549;SDS011;67273;52.914;-0.982;2023-05-19T05:01:06;5.22;;;3.67;;
53549;SDS011;67273;52.914;-0.982;2023-05-19T05:03:33;5.28;;;3.72;;
53549;SDS011;67273;52.914;-0.982;2023-05-19T05:05:59;5.30;;;3.88;;
53549;SDS011;67273;52.914;-0.982;2023-05-19T05:08:27;5.53;;;3.78;;
53549;SDS011;67273;52.914;-0.982;2023-05-19T05:10:55;5.28;;;3.95;;
53549;SDS011;67273;52.914;-0.982;2023-05-19T05:13:22;4.72;;;3.70;;
53549;SDS011;67273;52.914;-0.982;2023-05-19T05:15:49;4.50;;;3.67;;
53549;SDS011;67273;52.914;-0.982;2023-05-19T05:18:19;4.68;;;3.50;;
53549;SDS011;67273;52.914;-0.982;2023-05-19T05:20:45;5.07;;;3.47;;
53549;SDS011;67273;52.914;-0.982;2023-05-19T05:23:13;3.92;;;3.20;;
53549;SDS011;67273;52.914;-0.982;2023-05-19T05:25:43;4.43;;;3.50;;
53549;SDS011;67273;52.914;-0.982;2023-05-19T05:28:09;6.40;;;3.55;;
53549;SDS011;67273;52.914;-0.982;2023-05-19T05:30:36;5.10;;;3.70;;
53549;SDS011;67273;52.914;-0.982;2023-05-19T05:33:04;4.13;;;3.35;;
53549;SDS011;67273;52.914;-0.982;2023-05-19T05:35:36;5.55;;;3.38;;
53549;SDS011;67273;52.914;-0.982;2023-05-19T05:38:04;4.50;;;3.28;;
53549;SDS011;67273;52.914;-0.982;2023-05-19T05:40:29;3.83;;;3.22;;
53549;SDS011;67273;52.914;-0.982;2023-05-19T05:42:57;4.50;;;3.65;;
53549;SDS011;67273;52.914;-0.982;2023-05-19T05:45:25;3.92;;;3.13;;
53549;SDS011;67273;52.914;-0.982;2023-05-19T05:47:52;5.25;;;3.65;;
53549;SDS011;67273;52.914;-0.982;2023-05-19T05:50:18;4.43;;;2.90;;
53549;SDS011;67273;52.914;-0.982;2023-05-19T05:52:45;5.32;;;3.60;;
53549;SDS011;67273;52.914;-0.982;2023-05-19T05:55:12;5.10;;;3.50;;
53549;SDS011;67273;52.914;-0.982;2023-05-19T05:57:39;5.30;;;3.30;;
53549;SDS011;67273;52.914;-0.982;2023-05-19T06:00:10;5.00;;;3.55;;
53549;SDS011;67273;52.914;-0.982;2023-05-19T06:02:49;4.28;;;3.17;;
53549;SDS011;67273;52.914;-0.982;2023-05-19T06:05:17;4.55;;;3.40;;
53549;SDS011;67273;52.914;-0.982;2023-05-19T06:07:44;4.05;;;3.25;;
53549;SDS011;67273;52.914;-0.982;2023-05-19T06:10:14;4.30;;;3.35;;
53549;SDS011;67273;52.914;-0.982;2023-05-19T06:12:41;5.07;;;3.22;;
53549;SDS011;67273;52.914;-0.982;2023-05-19T06:15:09;4.40;;;3.25;;
53549;SDS011;67273;52.914;-0.982;2023-05-19T06:17:48;4.18;;;3.33;;
53549;SDS011;67273;52.914;-0.982;2023-05-19T06:20:14;4.82;;;3.33;;
53549;SDS011;67273;52.914;-0.982;2023-05-19T06:22:40;4.07;;;3.00;;
53549;SDS011;67273;52.914;-0.982;2023-05-19T06:25:08;4.15;;;3.00;;
53549;SDS011;67273;52.914;-0.982;2023-05-19T06:27:37;4.05;;;3.05;;
53549;SDS011;67273;52.914;-0.982;2023-05-19T06:30:04;4.15;;;3.17;;
53549;SDS011;67273;52.914;-0.982;2023-05-19T06:32:40;4.55;;;2.95;;
53549;SDS011;67273;52.914;-0.982;2023-05-19T06:35:07;4.82;;;3.10;;
53549;SDS011;67273;52.914;-0.982;2023-05-19T06:37:33;4.32;;;2.97;;
53549;SDS011;67273;52.914;-0.982;2023-05-19T06:40:02;3.88;;;2.88;;
53549;SDS011;67273;52.914;-0.982;2023-05-19T06:42:31;4.60;;;3.13;;
53549;SDS011;67273;52.914;-0.982;2023-05-19T06:45:27;3.65;;;2.75;;
53549;SDS011;67273;52.914;-0.982;2023-05-19T06:47:59;4.13;;;3.13;;
53549;SDS011;67273;52.914;-0.982;2023-05-19T06:50:25;4.32;;;2.75;;
53549;SDS011;67273;52.914;-0.982;2023-05-19T06:52:53;4.22;;;3.08;;
53549;SDS011;67273;52.914;-0.982;2023-05-19T06:55:19;4.35;;;2.90;;
53549;SDS011;67273;52.914;-0.982;2023-05-19T06:57:47;3.65;;;2.90;;
53549;SDS011;67273;52.914;-0.982;2023-05-19T07:00:13;4.90;;;3.35;;
53549;SDS011;67273;52.914;-0.982;2023-05-19T07:02:44;4.75;;;3.10;;
53549;SDS011;67273;52.914;-0.982;2023-05-19T07:05:11;4.88;;;3.15;;
53549;SDS011;67273;52.914;-0.982;2023-05-19T07:07:38;26.13;;;3.88;;
53549;SDS011;67273;52.914;-0.982;2023-05-19T07:10:07;6.60;;;3.60;;
53549;SDS011;67273;52.914;-0.982;2023-05-19T07:12:35;8.30;;;3.28;;
53549;SDS011;67273;52.914;-0.982;2023-05-19T07:15:03;9.25;;;3.70;;
53549;SDS011;67273;52.914;-0.982;2023-05-19T07:17:30;6.43;;;3.70;;
53549;SDS011;67273;52.914;-0.982;2023-05-19T07:19:57;7.03;;;3.33;;
53549;SDS011;67273;52.914;-0.982;2023-05-19T07:22:24;9.15;;;3.50;;
53549;SDS011;67273;52.914;-0.982;2023-05-19T07:24:50;9.68;;;3.78;;
53549;SDS011;67273;52.914;-0.982;2023-05-19T07:27:22;8.73;;;4.15;;
53549;SDS011;67273;52.914;-0.982;2023-05-19T07:29:48;10.45;;;4.20;;
53549;SDS011;67273;52.914;-0.982;2023-05-19T07:32:16;7.35;;;4.15;;
53549;SDS011;67273;52.914;-0.982;2023-05-19T07:34:42;8.57;;;3.85;;
53549;SDS011;67273;52.914;-0.982;2023-05-19T07:37:07;10.63;;;4.30;;
53549;SDS011;67273;52.914;-0.982;2023-05-19T07:39:35;8.27;;;4.15;;
53549;SDS011;67273;52.914;-0.982;2023-05-19T07:42:01;7.25;;;3.78;;
53549;SDS011;67273;52.914;-0.982;2023-05-19T07:44:29;6.38;;;3.80;;
53549;SDS011;67273;52.914;-0.982;2023-05-19T07:46:55;10.75;;;4.07;;
53549;SDS011;67273;52.914;-0.982;2023-05-19T07:49:21;7.65;;;3.97;;
53549;SDS011;67273;52.914;-0.982;2023-05-19T07:51:47;7.97;;;4.18;;
53549;SDS011;67273;52.914;-0.982;2023-05-19T07:54:14;7.68;;;3.80;;
53549;SDS011;67273;52.914;-0.982;2023-05-19T07:56:43;8.63;;;3.95;;
53549;SDS011;67273;52.914;-0.982;2023-05-19T07:59:10;8.45;;;3.67;;
53549;SDS011;67273;52.914;-0.982;2023-05-19T08:01:38;6.45;;;3.50;;
53549;SDS011;67273;52.914;-0.982;2023-05-19T08:04:05;8.80;;;3.60;;
53549;SDS011;67273;52.914;-0.982;2023-05-19T08:06:33;6.93;;;3.40;;
53549;SDS011;67273;52.914;-0.982;2023-05-19T08:09:01;7.60;;;3.70;;
53549;SDS011;67273;52.914;-0.982;2023-05-19T08:11:28;7.95;;;3.20;;
53549;SDS011;67273;52.914;-0.982;2023-05-19T08:13:55;6.95;;;3.38;;
53549;SDS011;67273;52.914;-0.982;2023-05-19T08:16:20;6.45;;;3.65;;
53549;SDS011;67273;52.914;-0.982;2023-05-19T08:18:46;7.90;;;3.85;;
53549;SDS011;67273;52.914;-0.982;2023-05-19T08:21:13;5.45;;;3.28;;
53549;SDS011;67273;52.914;-0.982;2023-05-19T08:23:41;6.68;;;3.55;;
53549;SDS011;67273;52.914;-0.982;2023-05-19T08:26:09;6.18;;;3.22;;
53549;SDS011;67273;52.914;-0.982;2023-05-19T08:28:40;5.40;;;3.42;;
53549;SDS011;67273;52.914;-0.982;2023-05-19T08:31:10;8.25;;;3.30;;
53549;SDS011;67273;52.914;-0.982;2023-05-19T08:33:36;6.95;;;3.15;;
53549;SDS011;67273;52.914;-0.982;2023-05-19T08:36:03;8.05;;;3.80;;
53549;SDS011;67273;52.914;-0.982;2023-05-19T08:38:29;9.80;;;3.45;;
53549;SDS011;67273;52.914;-0.982;2023-05-19T08:40:55;7.20;;;3.08;;
53549;SDS011;67273;52.914;-0.982;2023-05-19T08:43:23;6.65;;;3.50;;
53549;SDS011;67273;52.914;-0.982;2023-05-19T08:45:50;7.63;;;3.33;;
53549;SDS011;67273;52.914;-0.982;2023-05-19T08:48:20;6.65;;;3.15;;
53549;SDS011;67273;52.914;-0.982;2023-05-19T08:50:50;8.60;;;3.22;;
53549;SDS011;67273;52.914;-0.982;2023-05-19T08:53:22;6.95;;;3.20;;
53549;SDS011;67273;52.914;-0.982;2023-05-19T08:55:59;5.88;;;3.03;;
53549;SDS011;67273;52.914;-0.982;2023-05-19T08:58:36;7.32;;;3.00;;
53549;SDS011;67273;52.914;-0.982;2023-05-19T09:01:05;5.80;;;3.20;;
53549;SDS011;67273;52.914;-0.982;2023-05-19T09:03:33;10.13;;;3.38;;
53549;SDS011;67273;52.914;-0.982;2023-05-19T09:06:04;5.88;;;2.78;;
53549;SDS011;67273;52.914;-0.982;2023-05-19T09:08:38;6.28;;;3.15;;
53549;SDS011;67273;52.914;-0.982;2023-05-19T09:11:06;6.60;;;3.30;;
53549;SDS011;67273;52.914;-0.982;2023-05-19T09:13:35;5.60;;;2.80;;
53549;SDS011;67273;52.914;-0.982;2023-05-19T09:16:03;5.40;;;2.75;;
53549;SDS011;67273;52.914;-0.982;2023-05-19T09:18:29;5.45;;;2.95;;
53549;SDS011;67273;52.914;-0.982;2023-05-19T09:20:58;5.75;;;2.85;;
53549;SDS011;67273;52.914;-0.982;2023-05-19T09:23:25;7.70;;;2.90;;
53549;SDS011;67273;52.914;-0.982;2023-05-19T09:25:52;5.57;;;2.40;;
53549;SDS011;67273;52.914;-0.982;2023-05-19T09:28:22;6.30;;;2.95;;
53549;SDS011;67273;52.914;-0.982;2023-05-19T09:30:53;4.60;;;2.40;;
53549;SDS011;67273;52.914;-0.982;2023-05-19T09:33:23;3.08;;;2.40;;
53549;SDS011;67273;52.914;-0.982;2023-05-19T09:35:49;8.13;;;2.65;;
53549;SDS011;67273;52.914;-0.982;2023-05-19T09:38:17;4.80;;;2.58;;
53549;SDS011;67273;52.914;-0.982;2023-05-19T09:40:43;4.25;;;2.63;;
53549;SDS011;67273;52.914;-0.982;2023-05-19T09:43:09;4.25;;;2.28;;
53549;SDS011;67273;52.914;-0.982;2023-05-19T09:45:35;4.97;;;2.50;;
53549;SDS011;67273;52.914;-0.982;2023-05-19T09:48:02;5.95;;;3.00;;
53549;SDS011;67273;52.914;-0.982;2023-05-19T09:50:28;4.07;;;2.30;;
53549;SDS011;67273;52.914;-0.982;2023-05-19T09:52:58;6.95;;;3.00;;
53549;SDS011;67273;52.914;-0.982;2023-05-19T09:55:27;7.75;;;3.00;;
53549;SDS011;67273;52.914;-0.982;2023-05-19T09:57:53;3.65;;;2.33;;
53549;SDS011;67273;52.914;-0.982;2023-05-19T10:00:20;4.32;;;2.40;;
53549;SDS011;67273;52.914;-0.982;2023-05-19T10:02:47;4.43;;;2.60;;
53549;SDS011;67273;52.914;-0.982;2023-05-19T10:05:14;5.70;;;2.90;;
53549;SDS011;67273;52.914;-0.982;2023-05-19T10:07:42;5.30;;;2.83;;
53549;SDS011;67273;52.914;-0.982;2023-05-19T10:10:19;7.10;;;3.13;;
53549;SDS011;67273;52.914;-0.982;2023-05-19T10:12:47;6.07;;;2.90;;
53549;SDS011;67273;52.914;-0.982;2023-05-19T10:15:13;5.15;;;3.20;;
53549;SDS011;67273;52.914;-0.982;2023-05-19T10:17:40;6.80;;;3.00;;
53549;SDS011;67273;52.914;-0.982;2023-05-19T10:20:07;6.53;;;3.03;;
53549;SDS011;67273;52.914;-0.982;2023-05-19T10:22:35;5.35;;;3.08;;
53549;SDS011;67273;52.914;-0.982;2023-05-19T10:25:01;5.43;;;3.30;;
53549;SDS011;67273;52.914;-0.982;2023-05-19T10:27:27;8.07;;;3.22;;
53549;SDS011;67273;52.914;-0.982;2023-05-19T10:29:56;6.13;;;3.53;;
53549;SDS011;67273;52.914;-0.982;2023-05-19T10:32:27;7.25;;;2.97;;
53549;SDS011;67273;52.914;-0.982;2023-05-19T10:35:01;7.57;;;2.75;;
53549;SDS011;67273;52.914;-0.982;2023-05-19T10:40:24;5.88;;;3.05;;
53549;SDS011;67273;52.914;-0.982;2023-05-19T10:42:56;4.93;;;2.97;;
53549;SDS011;67273;52.914;-0.982;2023-05-19T10:45:31;4.47;;;2.65;;
53549;SDS011;67273;52.914;-0.982;2023-05-19T10:48:00;8.13;;;2.80;;
53549;SDS011;67273;52.914;-0.982;2023-05-19T10:50:26;4.57;;;2.67;;
53549;SDS011;67273;52.914;-0.982;2023-05-19T10:53:01;4.18;;;2.47;;
53549;SDS011;67273;52.914;-0.982;2023-05-19T10:58:14;4.65;;;2.72;;
53549;SDS011;67273;52.914;-0.982;2023-05-19T11:00:41;4.35;;;2.80;;
53549;SDS011;67273;52.914;-0.982;2023-05-19T11:03:11;5.82;;;2.78;;
53549;SDS011;67273;52.914;-0.982;2023-05-19T11:05:38;6.15;;;2.45;;
53549;SDS011;67273;52.914;-0.982;2023-05-19T11:08:04;3.95;;;2.50;;
53549;SDS011;67273;52.914;-0.982;2023-05-19T11:10:32;3.67;;;2.42;;
53549;SDS011;67273;52.914;-0.982;2023-05-19T11:12:58;6.05;;;2.70;;
53549;SDS011;67273;52.914;-0.982;2023-05-19T11:15:25;3.22;;;2.25;;
53549;SDS011;67273;52.914;-0.982;2023-05-19T11:17:53;3.90;;;2.22;;
53549;SDS011;67273;52.914;-0.982;2023-05-19T11:20:19;5.10;;;2.47;;
53549;SDS011;67273;52.914;-0.982;2023-05-19T11:22:59;5.97;;;2.63;;
53549;SDS011;67273;52.914;-0.982;2023-05-19T11:25:39;5.43;;;2.35;;
53549;SDS011;67273;52.914;-0.982;2023-05-19T11:28:06;4.60;;;2.47;;
53549;SDS011;67273;52.914;-0.982;2023-05-19T11:30:32;5.28;;;2.45;;
53549;SDS011;67273;52.914;-0.982;2023-05-19T11:33:00;4.15;;;2.25;;
53549;SDS011;67273;52.914;-0.982;2023-05-19T11:35:26;4.05;;;2.17;;
53549;SDS011;67273;52.914;-0.982;2023-05-19T11:37:52;4.25;;;2.60;;
53549;SDS011;67273;52.914;-0.982;2023-05-19T11:40:18;3.85;;;2.10;;
53549;SDS011;67273;52.914;-0.982;2023-05-19T11:42:45;4.22;;;2.75;;
53549;SDS011;67273;52.914;-0.982;2023-05-19T11:45:11;5.25;;;2.40;;
53549;SDS011;67273;52.914;-0.982;2023-05-19T11:47:37;5.13;;;2.67;;
53549;SDS011;67273;52.914;-0.982;2023-05-19T11:50:04;4.22;;;2.70;;
53549;SDS011;67273;52.914;-0.982;2023-05-19T11:52:31;4.90;;;2.50;;
53549;SDS011;67273;52.914;-0.982;2023-05-19T11:54:58;4.00;;;2.50;;
53549;SDS011;67273;52.914;-0.982;2023-05-19T11:57:25;3.03;;;2.13;;
53549;SDS011;67273;52.914;-0.982;2023-05-19T11:59:51;3.10;;;2.30;;
53549;SDS011;67273;52.914;-0.982;2023-05-19T12:02:18;3.70;;;2.20;;
53549;SDS011;67273;52.914;-0.982;2023-05-19T12:04:44;4.20;;;2.28;;
53549;SDS011;67273;52.914;-0.982;2023-05-19T12:07:12;4.80;;;2.45;;
53549;SDS011;67273;52.914;-0.982;2023-05-19T12:09:41;4.13;;;2.30;;
53549;SDS011;67273;52.914;-0.982;2023-05-19T12:12:07;5.63;;;2.30;;
53549;SDS011;67273;52.914;-0.982;2023-05-19T12:14:33;3.75;;;2.20;;
53549;SDS011;67273;52.914;-0.982;2023-05-19T12:17:08;4.25;;;2.53;;
53549;SDS011;67273;52.914;-0.982;2023-05-19T12:19:34;4.35;;;2.70;;
53549;SDS011;67273;52.914;-0.982;2023-05-19T12:22:00;4.15;;;2.45;;
53549;SDS011;67273;52.914;-0.982;2023-05-19T12:24:27;3.60;;;2.13;;
53549;SDS011;67273;52.914;-0.982;2023-05-19T12:27:03;4.13;;;2.60;;
53549;SDS011;67273;52.914;-0.982;2023-05-19T12:29:30;3.88;;;2.20;;
53549;SDS011;67273;52.914;-0.982;2023-05-19T12:31:56;2.92;;;2.15;;
53549;SDS011;67273;52.914;-0.982;2023-05-19T12:34:22;3.15;;;2.20;;
53549;SDS011;67273;52.914;-0.982;2023-05-19T12:36:48;6.75;;;2.20;;
53549;SDS011;67273;52.914;-0.982;2023-05-19T12:39:14;3.67;;;2.17;;
53549;SDS011;67273;52.914;-0.982;2023-05-19T12:41:42;4.93;;;2.30;;
53549;SDS011;67273;52.914;-0.982;2023-05-19T12:44:13;4.78;;;2.30;;
53549;SDS011;67273;52.914;-0.982;2023-05-19T12:46:39;6.25;;;2.53;;
53549;SDS011;67273;52.914;-0.982;2023-05-19T12:49:05;5.35;;;2.50;;
53549;SDS011;67273;52.914;-0.982;2023-05-19T12:51:30;3.45;;;2.10;;
53549;SDS011;67273;52.914;-0.982;2023-05-19T12:53:56;5.03;;;2.42;;
53549;SDS011;67273;52.914;-0.982;2023-05-19T12:56:23;4.93;;;2.58;;
53549;SDS011;67273;52.914;-0.982;2023-05-19T12:58:53;3.55;;;2.60;;
53549;SDS011;67273;52.914;-0.982;2023-05-19T13:01:19;5.93;;;2.70;;
53549;SDS011;67273;52.914;-0.982;2023-05-19T13:03:46;4.93;;;2.58;;
53549;SDS011;67273;52.914;-0.982;2023-05-19T13:06:12;5.72;;;2.20;;
53549;SDS011;67273;52.914;-0.982;2023-05-19T13:08:38;4.63;;;2.53;;
53549;SDS011;67273;52.914;-0.982;2023-05-19T13:11:06;4.30;;;2.53;;
53549;SDS011;67273;52.914;-0.982;2023-05-19T13:13:32;5.82;;;2.60;;
53549;SDS011;67273;52.914;-0.982;2023-05-19T13:15:59;8.93;;;2.90;;
53549;SDS011;67273;52.914;-0.982;2023-05-19T13:18:25;4.72;;;2.80;;
53549;SDS011;67273;52.914;-0.982;2023-05-19T13:20:51;4.32;;;2.80;;
53549;SDS011;67273;52.914;-0.982;2023-05-19T13:23:18;6.03;;;2.63;;
53549;SDS011;67273;52.914;-0.982;2023-05-19T13:25:44;5.00;;;2.70;;
53549;SDS011;67273;52.914;-0.982;2023-05-19T13:28:10;3.47;;;2.28;;
53549;SDS011;67273;52.914;-0.982;2023-05-19T13:30:36;4.85;;;2.70;;
53549;SDS011;67273;52.914;-0.982;2023-05-19T13:33:04;6.47;;;2.53;;
53549;SDS011;67273;52.914;-0.982;2023-05-19T13:35:31;5.85;;;2.65;;
53549;SDS011;67273;52.914;-0.982;2023-05-19T13:38:03;4.43;;;2.40;;
53549;SDS011;67273;52.914;-0.982;2023-05-19T13:40:33;5.32;;;2.55;;
53549;SDS011;67273;52.914;-0.982;2023-05-19T13:43:02;8.32;;;3.10;;
53549;SDS011;67273;52.914;-0.982;2023-05-19T13:45:30;5.97;;;3.28;;
53549;SDS011;67273;52.914;-0.982;2023-05-19T13:47:56;7.57;;;3.55;;
53549;SDS011;67273;52.914;-0.982;2023-05-19T13:50:23;9.77;;;3.13;;
53549;SDS011;67273;52.914;-0.982;2023-05-19T13:52:49;5.22;;;3.35;;
53549;SDS011;67273;52.914;-0.982;2023-05-19T13:55:15;6.75;;;3.20;;
53549;SDS011;67273;52.914;-0.982;2023-05-19T13:57:41;6.47;;;3.78;;
53549;SDS011;67273;52.914;-0.982;2023-05-19T14:00:07;7.53;;;3.15;;
53549;SDS011;67273;52.914;-0.982;2023-05-19T14:02:37;5.63;;;2.95;;
53549;SDS011;67273;52.914;-0.982;2023-05-19T14:05:04;6.05;;;3.35;;
53549;SDS011;67273;52.914;-0.982;2023-05-19T14:07:32;6.95;;;3.50;;
53549;SDS011;67273;52.914;-0.982;2023-05-19T14:09:59;5.28;;;2.85;;
53549;SDS011;67273;52.914;-0.982;2023-05-19T14:12:25;5.13;;;3.03;;
53549;SDS011;67273;52.914;-0.982;2023-05-19T14:14:51;5.38;;;3.08;;
53549;SDS011;67273;52.914;-0.982;2023-05-19T14:17:16;6.43;;;2.60;;
53549;SDS011;67273;52.914;-0.982;2023-05-19T14:19:42;7.03;;;2.97;;
53549;SDS011;67273;52.914;-0.982;2023-05-19T14:22:08;4.32;;;2.63;;
53549;SDS011;67273;52.914;-0.982;2023-05-19T14:24:35;5.90;;;2.63;;
53549;SDS011;67273;52.914;-0.982;2023-05-19T14:27:01;5.32;;;2.40;;
53549;SDS011;67273;52.914;-0.982;2023-05-19T14:29:27;5.30;;;2.90;;
53549;SDS011;67273;52.914;-0.982;2023-05-19T14:31:52;3.88;;;2.47;;
53549;SDS011;67273;52.914;-0.982;2023-05-19T14:34:18;4.72;;;2.75;;
53549;SDS011;67273;52.914;-0.982;2023-05-19T14:36:45;4.75;;;2.60;;
53549;SDS011;67273;52.914;-0.982;2023-05-19T14:39:11;4.30;;;2.55;;
53549;SDS011;67273;52.914;-0.982;2023-05-19T14:41:38;4.88;;;3.13;;
53549;SDS011;67273;52.914;-0.982;2023-05-19T14:44:03;5.25;;;2.65;;
53549;SDS011;67273;52.914;-0.982;2023-05-19T14:46:29;5.30;;;2.75;;
53549;SDS011;67273;52.914;-0.982;2023-05-19T14:48:55;4.68;;;2.85;;
53549;SDS011;67273;52.914;-0.982;2023-05-19T14:51:21;5.18;;;2.92;;
53549;SDS011;67273;52.914;-0.982;2023-05-19T14:53:47;5.68;;;3.25;;
53549;SDS011;67273;52.914;-0.982;2023-05-19T14:56:14;6.25;;;3.40;;